Time;durP1;ratioP1;P1;durP2;ratioP2;P2;SDS_P1;SDS_P2;PMS_P1;PMS_P2;Temp;Humidity;BMP_temperature;BMP_pressure;BME280_temperature;BME280_humidity;BME280_pressure;Samples;Min_cycle;Max_cycle;Signal;HPM_P1;HPM_P2
2023/02/26 00:01:37;;;;;;;2.70;2.60;;;;;;;-1.22;97.95;101255.44;6081352;23;20241;-71
2023/02/26 00:04:06;;;;;;;2.40;2.30;;;;;;;-0.64;98.00;101328.72;6079731;23;20021;-70
2023/02/26 00:06:35;;;;;;;2.47;2.38;;;;;;;-1.08;98.07;101263.25;6102906;23;20362;-70
2023/02/26 00:09:03;;;;;;;3.05;2.85;;;;;;;-0.50;97.66;101350.25;6081867;23;20084;-70
2023/02/26 00:11:31;;;;;;;2.67;2.58;;;;;;;-0.47;97.51;101354.56;6082971;23;20093;-70
2023/02/26 00:13:57;;;;;;;2.40;2.30;;;;;;;-0.46;97.01;101353.69;6083348;23;20033;-70
2023/02/26 00:16:28;;;;;;;2.50;2.40;;;;;;;-0.94;96.79;101268.47;6077825;23;20098;-70
2023/02/26 00:18:56;;;;;;;2.50;2.40;;;;;;;-0.76;96.12;101292.56;6082235;23;20022;-70
2023/02/26 00:21:24;;;;;;;2.58;2.47;;;;;;;-1.16;96.79;101231.44;6082023;23;20678;-70
2023/02/26 00:23:51;;;;;;;2.40;2.30;;;;;;;-1.06;96.12;101256.38;6083519;23;20085;-70
2023/02/26 00:26:19;;;;;;;2.60;2.50;;;;;;;-0.42;96.37;101365.75;6079847;23;20056;-71
2023/02/26 00:28:46;;;;;;;2.72;2.63;;;;;;;-1.31;95.36;101233.94;6080709;23;20029;-71
2023/02/26 00:31:14;;;;;;;3.03;2.92;;;;;;;-0.70;96.19;101342.44;6053745;23;20033;-70
2023/02/26 00:33:42;;;;;;;2.47;2.38;;;;;;;-0.99;95.65;101306.19;6080307;23;20034;-70
2023/02/26 00:36:46;;;;;;;2.47;2.38;;;;;;;-0.36;96.12;101385.53;6057944;23;20009;-71
2023/02/26 00:39:35;;;;;;;2.60;2.50;;;;;;;-0.35;95.76;101384.69;6084768;23;20093;-71
2023/02/26 00:42:02;;;;;;;2.60;2.50;;;;;;;-0.65;95.89;101340.72;6082988;23;20049;-72
2023/02/26 00:44:29;;;;;;;2.50;2.40;;;;;;;-0.32;96.01;101392.41;6086636;23;20089;-71
2023/02/26 00:47:36;;;;;;;2.72;2.63;;;;;;;-0.33;95.92;101388.97;6081869;23;20759;-71
2023/02/26 00:50:16;;;;;;;2.30;2.20;;;;;;;-0.32;96.23;101395.00;6046284;23;20022;-71
2023/02/26 00:52:57;;;;;;;2.53;2.42;;;;;;;-0.29;96.21;101393.28;6053353;23;20019;-71
2023/02/26 00:55:23;;;;;;;2.63;2.53;;;;;;;-1.22;95.95;101246.88;6082707;23;20025;-70
2023/02/26 00:57:49;;;;;;;2.40;2.30;;;;;;;-0.99;96.28;101289.91;6078187;23;20034;-71
2023/02/26 01:00:17;;;;;;;2.58;2.47;;;;;;;-0.27;96.63;101403.63;6077315;23;20021;-71
2023/02/26 01:02:44;;;;;;;2.42;2.33;;;;;;;-1.07;96.46;101301.00;6052226;23;20035;-71
2023/02/26 01:05:11;;;;;;;2.50;2.40;;;;;;;-0.27;96.72;101403.63;6079984;23;20032;-71
2023/02/26 01:07:46;;;;;;;2.83;2.70;;;;;;;-1.64;96.87;101189.13;6077168;23;20421;-71
2023/02/26 01:10:13;;;;;;;2.60;2.50;;;;;;;-1.26;97.67;101273.44;6051960;23;20044;-71
2023/02/26 01:12:41;;;;;;;2.35;2.25;;;;;;;-1.04;97.26;101300.19;6078606;23;20033;-71
2023/02/26 01:15:10;;;;;;;2.85;2.72;;;;;;;-0.36;97.24;101411.31;6052386;23;20034;-71
2023/02/26 01:17:46;;;;;;;2.30;2.20;;;;;;;-0.39;98.64;101413.91;6080725;23;20328;-71
2023/02/26 01:20:22;;;;;;;4.00;3.70;;;;;;;-1.38;97.91;101261.38;6053849;23;20030;-71
2023/02/26 01:22:53;;;;;;;2.40;2.30;;;;;;;-0.47;97.95;101412.13;6079687;23;20022;-71
2023/02/26 01:25:34;;;;;;;2.40;2.30;;;;;;;-0.65;98.93;101386.25;6079166;23;20165;-69
2023/02/26 01:28:00;;;;;;;2.40;2.30;;;;;;;-1.02;98.95;101347.41;6082630;23;20026;-70
2023/02/26 01:30:27;;;;;;;2.70;2.60;;;;;;;-0.94;98.47;101338.03;6100463;23;20393;-71
2023/02/26 01:33:03;;;;;;;2.75;2.65;;;;;;;-0.83;97.71;101374.13;6081014;23;20089;-70
2023/02/26 01:35:39;;;;;;;2.50;2.40;;;;;;;-1.78;98.47;101209.63;6084804;23;20033;-70
2023/02/26 01:38:27;;;;;;;2.60;2.50;;;;;;;-1.18;98.71;101332.69;6082857;23;20042;-71
2023/02/26 01:41:16;;;;;;;2.35;2.25;;;;;;;-1.76;99.50;101225.94;6083754;23;20426;-71
2023/02/26 01:43:46;;;;;;;2.47;2.38;;;;;;;-1.02;100.00;101355.16;6083917;23;20029;-71
2023/02/26 01:46:22;;;;;;;3.05;2.95;;;;;;;-0.53;99.43;101431.88;6054760;23;20014;-71
2023/02/26 01:48:50;;;;;;;2.92;2.72;;;;;;;-0.49;99.64;101428.44;6082644;23;20041;-71
2023/02/26 01:51:18;;;;;;;2.80;2.70;;;;;;;-0.48;99.22;101425.88;6081588;23;20049;-71
2023/02/26 01:53:44;;;;;;;2.75;2.65;;;;;;;-0.94;98.87;101353.47;6083473;23;20061;-71
2023/02/26 01:56:18;;;;;;;2.80;2.70;;;;;;;-0.45;98.63;101423.31;6079978;23;20038;-72
2023/02/26 01:58:47;;;;;;;2.88;2.70;;;;;;;-1.21;98.64;101294.91;6080153;23;20112;-70
2023/02/26 02:01:13;;;;;;;3.55;3.35;;;;;;;-0.67;99.07;101395.69;6078419;23;20038;-71
2023/02/26 02:03:41;;;;;;;2.50;2.40;;;;;;;-1.19;99.26;101312.97;6082685;23;20033;-71
2023/02/26 02:06:15;;;;;;;2.67;2.58;;;;;;;-0.70;98.53;101393.97;6078296;23;20437;-70
2023/02/26 02:08:44;;;;;;;2.40;2.30;;;;;;;-1.15;98.29;101318.13;6078802;23;20045;-70
2023/02/26 02:11:12;;;;;;;2.60;2.50;;;;;;;-1.39;98.34;101293.09;6080952;23;20022;-70
2023/02/26 02:14:02;;;;;;;2.22;2.13;;;;;;;-1.97;98.89;101200.06;6079046;23;20559;-70
2023/02/26 02:16:42;;;;;;;2.70;2.60;;;;;;;-2.29;98.58;101156.97;6075403;23;20025;-71
2023/02/26 02:19:30;;;;;;;2.50;2.40;;;;;;;-0.67;99.66;101439.53;6079826;23;20033;-70
2023/02/26 02:22:28;;;;;;;2.50;2.40;;;;;;;-0.84;100.00;101426.53;6077827;23;20065;-71
2023/02/26 02:25:18;;;;;;;2.97;2.88;;;;;;;-1.39;100.00;101360.03;6075844;23;20140;-70
2023/02/26 02:28:03;;;;;;;2.38;2.28;;;;;;;-0.97;100.00;101441.03;6075233;23;20037;-71
2023/02/26 02:31:07;;;;;;;2.20;2.10;;;;;;;-1.04;100.00;101436.72;6075487;23;20032;-71
2023/02/26 02:33:44;;;;;;;2.70;2.60;;;;;;;-1.30;100.00;101411.59;6053343;23;20119;-71
2023/02/26 02:36:52;;;;;;;2.50;2.40;;;;;;;-1.18;100.00;101444.31;6061755;23;20002;-71
2023/02/26 02:39:32;;;;;;;3.17;3.05;;;;;;;-1.41;100.00;101428.66;5966534;23;20284;-71
2023/02/26 02:42:08;;;;;;;2.50;2.40;;;;;;;-1.96;100.00;101340.69;6000809;23;20015;-70
2023/02/26 02:44:40;;;;;;;2.40;2.30;;;;;;;-1.30;100.00;101464.81;6028570;23;20026;-70
2023/02/26 02:47:09;;;;;;;2.20;2.10;;;;;;;-2.11;100.00;101357.66;6033730;23;20029;-69
2023/02/26 02:49:45;;;;;;;2.50;2.40;;;;;;;-2.28;100.00;101318.06;6023831;23;20532;-71
2023/02/26 02:52:20;;;;;;;2.90;2.70;;;;;;;-1.44;100.00;101459.56;6059273;23;20083;-71
2023/02/26 02:54:54;;;;;;;2.47;2.38;;;;;;;-1.68;100.00;101424.13;6060821;23;20092;-70
2023/02/26 02:57:26;;;;;;;2.47;2.38;;;;;;;-1.18;100.00;101490.69;6051059;23;20474;-71
2023/02/26 02:59:59;;;;;;;2.85;2.75;;;;;;;-1.93;100.00;101371.56;6059402;23;20434;-71
2023/02/26 03:02:40;;;;;;;2.47;2.38;;;;;;;-1.97;100.00;101373.22;6057874;23;20022;-70
2023/02/26 03:05:07;;;;;;;2.40;2.30;;;;;;;-2.05;100.00;101372.31;6063119;23;20026;-70
2023/02/26 03:07:42;;;;;;;2.47;2.38;;;;;;;-1.33;100.00;101488.81;6058540;23;20032;-70
2023/02/26 03:10:09;;;;;;;2.50;2.40;;;;;;;-1.93;100.00;101394.72;6059702;23;20030;-70
2023/02/26 03:12:36;;;;;;;2.20;2.10;;;;;;;-1.39;100.00;101457.84;6031308;23;20191;-70
2023/02/26 03:15:03;;;;;;;2.70;2.60;;;;;;;-1.82;100.00;101391.41;6051424;23;20063;-71
2023/02/26 03:17:35;;;;;;;2.40;2.30;;;;;;;-1.37;100.00;101474.19;6060950;23;20028;-71
2023/02/26 03:20:14;;;;;;;2.63;2.53;;;;;;;-1.14;100.00;101496.69;6078915;23;20033;-71
2023/02/26 03:23:08;;;;;;;2.10;2.00;;;;;;;-1.19;100.00;101496.66;6061537;23;20408;-71
2023/02/26 03:25:41;;;;;;;2.30;2.20;;;;;;;-1.28;100.00;101489.72;6060619;23;20281;-71
2023/02/26 03:28:20;;;;;;;2.60;2.50;;;;;;;-1.72;100.00;101437.81;6057186;23;20482;-71
2023/02/26 03:30:57;;;;;;;2.60;2.50;;;;;;;-1.57;100.00;101468.84;6064308;23;20026;-71
2023/02/26 03:33:27;;;;;;;2.40;2.30;;;;;;;-1.38;100.00;101505.94;6081714;23;20025;-71
2023/02/26 03:35:55;;;;;;;2.35;2.25;;;;;;;-1.77;100.00;101442.91;6078300;23;20239;-71
2023/02/26 03:38:37;;;;;;;2.72;2.63;;;;;;;-2.59;99.91;101325.41;6075551;23;20191;-71
2023/02/26 03:41:09;;;;;;;2.80;2.60;;;;;;;-1.57;100.00;101509.16;6076782;23;20281;-71
2023/02/26 03:43:48;;;;;;;3.15;3.05;;;;;;;-1.96;100.00;101459.84;6071811;23;20562;-71
2023/02/26 03:46:19;;;;;;;2.38;2.28;;;;;;;-2.09;100.00;101438.25;6048505;23;20097;-71
2023/02/26 03:48:50;;;;;;;2.38;2.28;;;;;;;-2.64;99.86;101355.34;6076503;23;20029;-70
2023/02/26 03:51:18;;;;;;;2.85;2.75;;;;;;;-2.15;100.00;101466.47;6076400;23;20022;-70
2023/02/26 03:54:07;;;;;;;2.30;2.20;;;;;;;-1.69;100.00;101536.47;6082069;23;20095;-71
2023/02/26 03:56:44;;;;;;;2.20;2.10;;;;;;;-1.87;100.00;101508.81;6079387;23;20066;-71
2023/02/26 03:59:12;;;;;;;3.65;3.55;;;;;;;-1.71;99.94;101533.03;6074405;23;20032;-70
2023/02/26 04:01:44;;;;;;;2.45;2.35;;;;;;;-1.91;100.00;101504.50;6052687;23;20080;-71
2023/02/26 04:04:33;;;;;;;2.30;2.20;;;;;;;-2.17;100.00;101483.59;6056540;23;20117;-71
2023/02/26 04:07:00;;;;;;;2.33;2.22;;;;;;;-2.36;99.87;101433.66;6078269;23;20105;-70
2023/02/26 04:09:27;;;;;;;2.50;2.40;;;;;;;-2.02;99.63;101509.50;6078105;23;20029;-71
2023/02/26 04:11:56;;;;;;;2.67;2.58;;;;;;;-2.72;98.47;101390.38;6078309;23;20376;-71
2023/02/26 04:14:24;;;;;;;4.13;2.40;;;;;;;-2.02;99.12;101527.50;6080003;23;20143;-70
2023/02/26 04:16:51;;;;;;;2.53;2.42;;;;;;;-2.16;99.76;101513.63;6081367;23;20426;-71
2023/02/26 04:19:20;;;;;;;2.72;2.63;;;;;;;-2.81;99.98;101409.94;6080360;23;20030;-70
2023/02/26 04:21:46;;;;;;;2.40;2.30;;;;;;;-2.71;100.00;101441.75;6080481;23;20449;-71
2023/02/26 04:24:13;;;;;;;2.28;2.17;;;;;;;-2.76;100.00;101438.25;6081492;23;20050;-71
2023/02/26 04:26:39;;;;;;;2.33;2.22;;;;;;;-2.54;100.00;101490.81;6079230;23;20472;-71
2023/02/26 04:29:06;;;;;;;2.20;2.10;;;;;;;-2.88;100.00;101438.94;6079804;23;20074;-71
2023/02/26 04:31:32;;;;;;;2.67;2.58;;;;;;;-2.77;100.00;101464.78;6087751;23;20424;-70
2023/02/26 04:33:58;;;;;;;2.65;2.47;;;;;;;-2.77;100.00;101481.91;6079523;23;20414;-70
2023/02/26 04:36:25;;;;;;;2.65;2.55;;;;;;;-2.57;100.00;101542.16;6078146;23;20134;-70
2023/02/26 04:38:52;;;;;;;4.07;2.60;;;;;;;-2.66;100.00;101536.88;6081390;23;20258;-71
2023/02/26 04:41:18;;;;;;;2.40;2.30;;;;;;;-3.83;100.00;101357.84;6086447;23;20022;-71
2023/02/26 04:43:45;;;;;;;2.63;2.53;;;;;;;-2.57;100.00;101552.44;6078992;23;20037;-71
2023/02/26 04:46:11;;;;;;;2.38;2.28;;;;;;;-3.04;100.00;101472.94;6081598;23;20036;-71
2023/02/26 04:48:38;;;;;;;2.20;2.10;;;;;;;-2.84;100.00;101509.22;6080614;23;20014;-71
2023/02/26 04:51:04;;;;;;;2.33;2.22;;;;;;;-2.98;100.00;101492.72;6081109;23;20072;-71
2023/02/26 04:53:31;;;;;;;10.27;2.95;;;;;;;-2.98;100.00;101493.56;6081543;23;20362;-71
2023/02/26 04:55:57;;;;;;;2.72;2.63;;;;;;;-2.54;100.00;101561.91;6080727;23;20018;-71
2023/02/26 04:58:24;;;;;;;2.50;2.40;;;;;;;-2.58;100.00;101562.72;6079855;23;20257;-71
2023/02/26 05:00:53;;;;;;;2.33;2.22;;;;;;;-2.42;100.00;101580.94;6075699;23;20083;-71
2023/02/26 05:03:20;;;;;;;2.60;2.50;;;;;;;-2.36;100.00;101597.31;6050495;23;20041;-70
2023/02/26 05:05:46;;;;;;;2.28;2.17;;;;;;;-3.03;100.00;101501.22;6078709;23;20500;-71
2023/02/26 05:08:13;;;;;;;2.67;2.50;;;;;;;-2.48;100.00;101603.13;6078838;23;20281;-71
2023/02/26 05:10:39;;;;;;;3.03;2.70;;;;;;;-2.29;100.00;101615.41;6077412;23;20029;-71
2023/02/26 05:13:06;;;;;;;2.50;2.40;;;;;;;-3.39;100.00;101423.56;6080535;23;20102;-72
2023/02/26 05:15:33;;;;;;;2.90;2.80;;;;;;;-2.90;100.00;101492.00;6078095;23;20178;-71
2023/02/26 05:17:59;;;;;;;2.60;2.50;;;;;;;-4.40;100.00;101254.31;6079312;23;20024;-70
2023/02/26 05:20:26;;;;;;;2.70;2.60;;;;;;;-2.45;100.00;101605.72;6083354;23;20395;-71
2023/02/26 05:22:52;;;;;;;2.72;2.63;;;;;;;-3.71;100.00;101408.47;6078988;23;20459;-71
2023/02/26 05:25:19;;;;;;;2.22;2.13;;;;;;;-2.25;100.00;101636.91;6053438;23;20030;-71
2023/02/26 05:27:45;;;;;;;2.42;2.33;;;;;;;-2.27;100.00;101651.44;6077064;23;20014;-71
2023/02/26 05:30:14;;;;;;;2.78;2.67;;;;;;;-2.70;100.00;101540.25;6081566;23;20022;-71
2023/02/26 05:32:41;;;;;;;2.58;2.47;;;;;;;-2.42;100.00;101598.94;6076181;23;20020;-71
2023/02/26 05:35:07;;;;;;;2.47;2.38;;;;;;;-3.14;100.00;101477.03;6078051;23;20029;-70
2023/02/26 05:37:34;;;;;;;2.50;2.40;;;;;;;-2.97;100.00;101502.97;6078569;23;20010;-72
2023/02/26 05:40:00;;;;;;;2.50;2.40;;;;;;;-2.27;100.00;101648.88;6076566;23;20014;-71
2023/02/26 05:42:26;;;;;;;2.45;2.35;;;;;;;-2.91;100.00;101533.91;6101574;23;20084;-70
2023/02/26 05:44:53;;;;;;;2.20;2.10;;;;;;;-3.56;100.00;101431.84;6076875;23;20422;-71
2023/02/26 05:47:20;;;;;;;2.53;2.42;;;;;;;-2.11;100.00;101662.81;6052370;23;20036;-71
2023/02/26 05:49:46;;;;;;;2.53;2.42;;;;;;;-2.76;100.00;101563.28;6075181;23;20046;-71
2023/02/26 05:52:13;;;;;;;2.67;2.58;;;;;;;-2.50;100.00;101599.66;6075980;23;20646;-70
2023/02/26 05:54:39;;;;;;;2.50;2.40;;;;;;;-2.49;100.00;101620.22;6078382;23;20480;-70
2023/02/26 05:57:05;;;;;;;2.15;2.05;;;;;;;-2.49;100.00;101640.78;6077556;23;20058;-70
2023/02/26 05:59:32;;;;;;;2.60;2.50;;;;;;;-3.55;100.00;101482.31;6079771;23;20154;-70
2023/02/26 06:01:58;;;;;;;2.30;2.20;;;;;;;-3.64;100.00;101453.94;6077070;23;20041;-71
2023/02/26 06:04:25;;;;;;;3.08;2.92;;;;;;;-2.57;100.00;101637.22;6075066;23;20063;-71
2023/02/26 06:06:51;;;;;;;2.30;2.20;;;;;;;-3.68;100.00;101467.53;6079071;23;20033;-70
2023/02/26 06:09:17;;;;;;;2.22;2.13;;;;;;;-3.31;100.00;101530.66;6077273;23;20041;-70
2023/02/26 06:11:44;;;;;;;2.63;2.53;;;;;;;-2.42;100.00;101691.47;6080344;23;20022;-71
2023/02/26 06:14:10;;;;;;;2.40;2.30;;;;;;;-4.14;100.00;101402.56;6080904;23;20217;-71
2023/02/26 06:16:37;;;;;;;2.50;2.40;;;;;;;-2.42;100.00;101700.91;6079878;23;20393;-71
2023/02/26 06:19:03;;;;;;;2.53;2.42;;;;;;;-2.68;100.00;101678.16;6079927;23;20346;-71
2023/02/26 06:21:30;;;;;;;2.95;2.60;;;;;;;-3.01;100.00;101611.63;6078407;23;20495;-71
2023/02/26 06:23:56;;;;;;;2.40;2.30;;;;;;;-3.10;100.00;101604.63;6079403;23;20095;-70
2023/02/26 06:26:23;;;;;;;2.45;2.35;;;;;;;-2.57;100.00;101705.75;6082597;23;20105;-71
2023/02/26 06:28:49;;;;;;;2.40;2.30;;;;;;;-3.10;100.00;101619.19;6079194;23;20034;-70
2023/02/26 06:31:16;;;;;;;2.25;2.15;;;;;;;-2.69;100.00;101690.97;6093471;23;20037;-71
2023/02/26 06:33:45;;;;;;;2.22;2.13;;;;;;;-4.05;100.00;101483.09;6083403;23;20047;-71
2023/02/26 06:36:11;;;;;;;2.40;2.30;;;;;;;-3.39;100.00;101593.81;6077241;23;20033;-71
2023/02/26 06:38:37;;;;;;;2.50;2.40;;;;;;;-2.58;100.00;101728.03;6075965;23;20029;-70
2023/02/26 06:41:04;;;;;;;2.13;2.03;;;;;;;-2.76;100.00;101709.72;6077102;23;20619;-72
2023/02/26 06:43:30;;;;;;;2.50;2.40;;;;;;;-2.67;100.00;101721.00;6077675;23;20479;-70
2023/02/26 06:45:58;;;;;;;2.30;2.20;;;;;;;-2.52;100.00;101735.00;6077484;23;20026;-71
2023/02/26 06:48:25;;;;;;;2.58;2.47;;;;;;;-2.66;100.00;101717.59;6077005;23;20189;-71
2023/02/26 06:50:52;;;;;;;2.30;2.20;;;;;;;-2.44;100.00;101747.13;6078248;23;20720;-70
2023/02/26 06:53:18;;;;;;;2.35;2.25;;;;;;;-3.16;100.00;101629.34;6074479;23;20293;-70
2023/02/26 06:55:46;;;;;;;3.22;2.50;;;;;;;-2.56;100.00;101728.91;6075058;23;20053;-71
2023/02/26 06:58:12;;;;;;;2.28;2.17;;;;;;;-2.67;100.00;101713.28;6076965;23;20021;-70
2023/02/26 07:00:40;;;;;;;2.50;2.40;;;;;;;-2.95;100.00;101657.97;6053017;23;20061;-71
2023/02/26 07:03:10;;;;;;;2.50;2.40;;;;;;;-2.25;100.00;101768.03;6073697;23;20030;-72
2023/02/26 07:05:37;;;;;;;2.60;2.50;;;;;;;-2.50;100.00;101734.16;6078783;23;20025;-71
2023/02/26 07:08:04;;;;;;;2.40;2.30;;;;;;;-2.76;100.00;101691.72;6077799;23;20026;-72
2023/02/26 07:10:32;;;;;;;2.53;2.42;;;;;;;-2.86;100.00;101673.56;6073654;23;20236;-71
2023/02/26 07:12:58;;;;;;;2.30;2.20;;;;;;;-2.53;100.00;101726.38;6079250;23;20046;-71
2023/02/26 07:15:25;;;;;;;2.65;2.55;;;;;;;-2.42;100.00;101747.16;6085065;23;20074;-72
2023/02/26 07:17:51;;;;;;;3.05;2.67;;;;;;;-3.29;100.00;101600.84;6075188;23;20027;-71
2023/02/26 07:20:18;;;;;;;3.30;3.13;;;;;;;-2.55;100.00;101729.78;6077982;23;20018;-70
2023/02/26 07:22:44;;;;;;;2.25;2.15;;;;;;;-3.19;100.00;101598.47;6074880;23;20021;-71
2023/02/26 07:25:11;;;;;;;2.30;2.20;;;;;;;-3.15;100.00;101602.81;6079834;23;20212;-72
2023/02/26 07:27:38;;;;;;;2.75;2.65;;;;;;;-2.21;100.00;101772.38;6080840;23;20029;-70
2023/02/26 07:30:07;;;;;;;2.30;2.20;;;;;;;-2.70;100.00;101686.69;6081631;23;20037;-71
2023/02/26 07:32:33;;;;;;;2.50;2.40;;;;;;;-1.84;100.00;101820.19;6080003;23;20164;-71
2023/02/26 07:35:00;;;;;;;2.50;2.40;;;;;;;-1.92;100.00;101808.91;6082013;23;20030;-72
2023/02/26 07:37:27;;;;;;;2.58;2.47;;;;;;;-1.99;100.00;101785.63;6080259;23;20034;-71
2023/02/26 07:39:56;;;;;;;2.85;2.75;;;;;;;-1.59;100.00;101851.47;6082113;23;20284;-72
2023/02/26 07:42:22;;;;;;;2.75;2.65;;;;;;;-1.80;100.00;101805.69;6079593;23;20030;-70
2023/02/26 07:44:49;;;;;;;2.40;2.30;;;;;;;-2.08;100.00;101751.19;6080654;23;20046;-72
2023/02/26 07:47:15;;;;;;;2.20;2.10;;;;;;;-2.12;100.00;101740.84;6081012;23;20527;-71
2023/02/26 07:49:42;;;;;;;2.33;2.22;;;;;;;-1.56;100.00;101828.38;6054382;23;21015;-72
2023/02/26 07:52:08;;;;;;;2.40;2.30;;;;;;;-1.76;100.00;101788.56;6079841;23;20030;-70
2023/02/26 07:54:35;;;;;;;2.40;2.30;;;;;;;-1.48;100.00;101839.66;6078756;23;20049;-71
2023/02/26 07:57:03;;;;;;;2.38;2.28;;;;;;;-1.25;99.31;101867.47;6069825;23;20289;-72
2023/02/26 07:59:30;;;;;;;2.92;2.83;;;;;;;-1.45;98.13;101838.81;6078666;23;20020;-71
2023/02/26 08:01:56;;;;;;;2.72;2.63;;;;;;;-1.76;98.81;101781.72;6073845;23;20013;-71
2023/02/26 08:04:23;;;;;;;2.40;2.30;;;;;;;-2.53;97.72;101669.84;6075254;23;20026;-71
2023/02/26 08:06:49;;;;;;;2.80;2.60;;;;;;;-1.71;98.23;101795.50;6080852;23;20113;-71
2023/02/26 08:09:15;;;;;;;2.20;2.10;;;;;;;-1.25;97.46;101873.47;6081340;23;20033;-70
2023/02/26 08:11:42;;;;;;;2.50;2.40;;;;;;;-1.30;98.09;101864.81;6079012;23;20322;-71
2023/02/26 08:14:10;;;;;;;2.40;2.30;;;;;;;-1.87;98.09;101742.09;6053654;23;20206;-71
2023/02/26 08:16:36;;;;;;;2.63;2.53;;;;;;;-2.34;96.81;101668.47;6074200;23;20263;-71
2023/02/26 08:19:03;;;;;;;2.58;2.47;;;;;;;-1.52;96.03;101795.81;6081064;23;20384;-71
2023/02/26 08:21:29;;;;;;;2.75;2.65;;;;;;;-1.35;96.93;101820.09;6078480;23;20092;-71
2023/02/26 08:23:55;;;;;;;2.40;2.30;;;;;;;-2.54;95.11;101597.91;6079049;23;20034;-70
2023/02/26 08:26:22;;;;;;;2.40;2.30;;;;;;;-1.16;94.21;101823.81;6078835;23;20022;-71
2023/02/26 08:28:49;;;;;;;2.40;2.30;;;;;;;-1.07;94.43;101830.81;6080987;23;20150;-71
2023/02/26 08:31:18;;;;;;;2.40;2.30;;;;;;;-0.74;93.09;101887.09;6067135;23;20173;-71
2023/02/26 08:33:45;;;;;;;2.40;2.30;;;;;;;-1.14;91.58;101803.22;6056035;23;20038;-71
2023/02/26 08:36:12;;;;;;;3.10;2.83;;;;;;;-1.26;91.12;101788.47;6054316;23;20464;-72
2023/02/26 08:38:38;;;;;;;2.80;2.70;;;;;;;-0.76;89.82;101847.56;6057121;23;20576;-71
2023/02/26 08:41:05;;;;;;;2.50;2.40;;;;;;;-1.44;89.10;101725.56;6055341;23;20042;-72
2023/02/26 08:43:31;;;;;;;3.28;3.17;;;;;;;-0.51;88.27;101869.34;6054921;23;20016;-70
2023/02/26 08:45:58;;;;;;;2.45;2.35;;;;;;;-1.10;87.70;101759.50;6059804;23;20021;-71
2023/02/26 08:48:25;;;;;;;2.60;2.50;;;;;;;-1.93;87.06;101597.94;6056806;23;20614;-71
2023/02/26 08:50:51;;;;;;;2.55;2.45;;;;;;;-0.92;86.09;101764.03;6053814;23;20100;-70
2023/02/26 08:53:18;;;;;;;2.53;2.42;;;;;;;-0.44;86.70;101829.00;6053488;23;20497;-71
2023/02/26 08:55:48;;;;;;;2.70;2.60;;;;;;;-0.47;85.09;101835.00;6028469;23;20024;-70
2023/02/26 08:58:16;;;;;;;2.47;2.38;;;;;;;-0.13;83.47;101879.25;6063991;23;20010;-71
2023/02/26 09:00:42;;;;;;;2.60;2.50;;;;;;;-0.06;83.04;101878.47;6027577;23;20532;-71
2023/02/26 09:03:09;;;;;;;2.50;2.40;;;;;;;-0.77;82.50;101734.13;6055338;23;20039;-70
2023/02/26 09:05:36;;;;;;;2.80;2.70;;;;;;;-0.74;81.87;101740.19;6053584;23;20308;-70
2023/02/26 09:08:03;;;;;;;2.65;2.55;;;;;;;0.12;80.49;101864.88;6056490;23;20508;-71
2023/02/26 09:10:30;;;;;;;2.67;2.58;;;;;;;-0.44;79.57;101768.00;6056950;23;20015;-71
2023/02/26 09:12:56;;;;;;;2.75;2.65;;;;;;;0.25;79.37;101873.59;6052177;23;20026;-71
2023/02/26 09:15:23;;;;;;;2.70;2.60;;;;;;;-0.36;77.74;101760.34;6061448;23;20033;-71
2023/02/26 09:17:50;;;;;;;2.60;2.50;;;;;;;0.22;78.56;101855.53;6051205;23;20381;-71
2023/02/26 09:20:17;;;;;;;2.50;2.40;;;;;;;-0.86;77.51;101668.75;6060678;23;20097;-71
2023/02/26 09:22:43;;;;;;;2.70;2.60;;;;;;;-0.19;76.90;101747.59;6053170;23;20014;-73
2023/02/26 09:25:10;;;;;;;2.80;2.70;;;;;;;-0.19;76.56;101741.59;6058979;23;20034;-73
2023/02/26 09:27:36;;;;;;;2.92;2.83;;;;;;;0.34;75.91;101831.50;6055341;23;20034;-72
2023/02/26 09:30:04;;;;;;;2.70;2.60;;;;;;;0.50;75.39;101841.13;6055987;23;20034;-71
2023/02/26 09:32:30;;;;;;;2.60;2.50;;;;;;;0.36;74.87;101810.03;6079160;23;20116;-73
2023/02/26 09:34:57;;;;;;;2.72;2.63;;;;;;;-0.08;75.11;101738.25;6091422;23;20253;-72
2023/02/26 09:37:23;;;;;;;2.95;2.85;;;;;;;0.65;74.49;101865.34;6081095;23;20033;-73
2023/02/26 09:39:50;;;;;;;3.45;3.30;;;;;;;-0.09;74.30;101733.94;6083687;23;20021;-72
2023/02/26 09:42:28;;;;;;;2.95;2.85;;;;;;;0.63;73.37;101833.47;6079594;23;20037;-71
2023/02/26 09:44:58;;;;;;;2.85;2.75;;;;;;;-0.52;72.86;101639.84;6079421;23;20562;-72
2023/02/26 09:47:42;;;;;;;2.50;2.40;;;;;;;0.78;72.93;101838.72;6051869;23;20038;-72
2023/02/26 09:50:24;;;;;;;2.90;2.70;;;;;;;0.14;70.64;101723.81;6078826;23;20096;-71
2023/02/26 09:53:04;;;;;;;2.70;2.60;;;;;;;1.04;71.59;101864.72;6076165;23;20025;-72
2023/02/26 09:55:42;;;;;;;2.80;2.70;;;;;;;0.50;70.57;101747.25;6078896;23;20677;-71
2023/02/26 09:58:23;;;;;;;2.60;2.50;;;;;;;1.18;69.16;101798.47;6080595;23;20335;-71
2023/02/26 10:01:03;;;;;;;2.80;2.70;;;;;;;0.13;67.67;101600.75;6049599;23;20034;-71
2023/02/26 10:03:49;;;;;;;3.13;2.97;;;;;;;-0.13;68.09;101579.97;6053090;23;20049;-72
2023/02/26 10:06:36;;;;;;;3.00;2.90;;;;;;;0.65;67.50;101705.16;6077080;23;20449;-71
2023/02/26 10:09:29;;;;;;;2.53;2.42;;;;;;;0.96;67.84;101761.31;6078539;23;20489;-71
2023/02/26 10:12:12;;;;;;;3.90;2.97;;;;;;;1.10;69.07;101826.00;6077438;23;20073;-71
2023/02/26 10:15:08;;;;;;;6.47;2.90;;;;;;;-0.16;68.28;101573.91;6076276;23;20026;-72
2023/02/26 10:17:49;;;;;;;2.70;2.60;;;;;;;1.18;67.49;101795.88;6066023;23;20095;-71
2023/02/26 10:20:20;;;;;;;3.08;2.90;;;;;;;0.75;67.08;101715.53;6079115;23;20071;-72
2023/02/26 10:22:58;;;;;;;2.80;2.70;;;;;;;1.36;67.51;101808.03;6058635;23;20401;-72
2023/02/26 10:25:34;;;;;;;2.92;2.83;;;;;;;1.35;66.13;101764.03;6076327;23;20045;-71
2023/02/26 10:28:28;;;;;;;2.88;2.78;;;;;;;1.45;65.17;101758.03;6074487;23;20022;-73
2023/02/26 10:31:02;;;;;;;2.85;2.75;;;;;;;1.82;65.81;101812.44;6075845;23;20029;-72
2023/02/26 10:33:44;;;;;;;2.88;2.78;;;;;;;2.01;64.47;101765.88;6075973;23;20033;-72
2023/02/26 10:36:39;;;;;;;3.67;2.60;;;;;;;2.03;63.58;101717.56;6077703;23;20014;-71
2023/02/26 10:39:26;;;;;;;3.13;2.97;;;;;;;2.01;63.52;101717.56;6080382;23;20114;-72
2023/02/26 10:41:52;;;;;;;2.95;2.85;;;;;;;1.78;63.41;101699.41;6077515;23;20030;-72
2023/02/26 10:44:30;;;;;;;3.08;2.92;;;;;;;1.95;62.81;101707.22;6078762;23;20034;-71
2023/02/26 10:47:08;;;;;;;2.80;2.70;;;;;;;1.52;62.51;101617.47;6098860;23;20030;-72
2023/02/26 10:49:48;;;;;;;3.03;2.92;;;;;;;1.83;62.29;101666.66;6080005;23;20384;-72
2023/02/26 10:52:18;;;;;;;10.93;3.40;;;;;;;0.33;61.36;101345.25;6076675;23;20077;-72
2023/02/26 10:54:53;;;;;;;2.75;2.65;;;;;;;2.22;60.69;101661.41;6078857;23;20068;-72
2023/02/26 10:57:25;;;;;;;7.93;2.90;;;;;;;0.84;60.96;101432.22;6050539;23;20075;-72
2023/02/26 10:59:52;;;;;;;;;;;;;;;2.43;61.04;101696.78;6082309;23;20032;-72
2023/02/26 11:02:47;;;;;;;2.55;2.45;;;;;;;2.90;61.47;101743.28;6081771;23;22142;-71
2023/02/26 11:05:20;;;;;;;3.03;2.92;;;;;;;1.83;60.92;101531.22;6079211;23;20057;-71
2023/02/26 11:07:53;;;;;;;3.03;2.92;;;;;;;2.34;59.71;101597.47;6054729;23;20025;-71
2023/02/26 11:10:23;;;;;;;2.97;2.88;;;;;;;2.89;59.38;101668.13;6081561;23;20371;-71
2023/02/26 11:12:51;;;;;;;2.90;2.80;;;;;;;2.27;59.92;101558.69;6080592;23;20030;-71
2023/02/26 11:15:24;;;;;;;4.93;3.25;;;;;;;3.19;58.62;101638.56;6083728;23;20238;-74
2023/02/26 11:17:55;;;;;;;3.30;3.20;;;;;;;2.98;58.43;101613.59;6079581;23;20085;-72
2023/02/26 11:20:37;;;;;;;3.78;3.58;;;;;;;2.60;58.76;101601.69;6082417;23;20469;-71
2023/02/26 11:23:10;;;;;;;2.92;2.83;;;;;;;2.52;58.34;101554.25;6081978;23;20088;-71
2023/02/26 11:25:39;;;;;;;;;;;;;;;2.70;58.14;101584.38;6081862;23;20038;-71
2023/02/26 11:28:19;;;;;;;3.20;3.10;;;;;;;1.12;58.50;101316.72;6082430;23;20621;-71
2023/02/26 11:30:47;;;;;;;3.00;2.90;;;;;;;2.27;58.13;101538.81;6083402;23;20095;-70
2023/02/26 11:33:22;;;;;;;3.33;3.20;;;;;;;2.52;59.33;101593.09;6077524;23;20516;-71
2023/02/26 11:35:49;;;;;;;3.30;3.20;;;;;;;2.70;59.05;101634.47;6080669;23;20128;-71
2023/02/26 11:38:21;;;;;;;3.85;3.65;;;;;;;3.18;57.89;101686.09;6080879;23;20042;-70
2023/02/26 11:40:53;;;;;;;3.38;3.28;;;;;;;3.00;57.49;101591.97;6082021;23;20049;-71
2023/02/26 11:43:22;;;;;;;3.10;3.00;;;;;;;2.94;56.95;101523.75;6080712;23;20034;-71